sensor_id;sensor_type;location;lat;lon;timestamp;P1;durP1;ratioP1;P2;durP2;ratioP2
44558;SDS011;30270;40.238;18.256;2022-11-20T00:01:17;33.03;;;8.07;;
44558;SDS011;30270;40.238;18.256;2022-11-20T00:03:46;30.85;;;10.65;;
44558;SDS011;30270;40.238;18.256;2022-11-20T00:06:15;31.25;;;9.57;;
44558;SDS011;30270;40.238;18.256;2022-11-20T00:08:44;21.27;;;8.30;;
44558;SDS011;30270;40.238;18.256;2022-11-20T00:11:16;21.20;;;7.05;;
44558;SDS011;30270;40.238;18.256;2022-11-20T00:13:50;30.83;;;10.52;;
44558;SDS011;30270;40.238;18.256;2022-11-20T00:16:21;26.80;;;9.20;;
44558;SDS011;30270;40.238;18.256;2022-11-20T00:18:50;23.88;;;7.00;;
44558;SDS011;30270;40.238;18.256;2022-11-20T00:21:25;30.98;;;8.65;;
44558;SDS011;30270;40.238;18.256;2022-11-20T00:23:54;29.30;;;9.48;;
44558;SDS011;30270;40.238;18.256;2022-11-20T00:26:23;36.58;;;11.88;;
44558;SDS011;30270;40.238;18.256;2022-11-20T00:28:53;37.00;;;11.02;;
44558;SDS011;30270;40.238;18.256;2022-11-20T00:31:22;31.80;;;8.35;;
44558;SDS011;30270;40.238;18.256;2022-11-20T00:33:50;31.33;;;9.98;;
44558;SDS011;30270;40.238;18.256;2022-11-20T00:36:19;28.13;;;9.88;;
44558;SDS011;30270;40.238;18.256;2022-11-20T00:38:55;35.88;;;11.07;;
44558;SDS011;30270;40.238;18.256;2022-11-20T00:41:24;39.80;;;11.57;;
44558;SDS011;30270;40.238;18.256;2022-11-20T00:43:54;20.60;;;8.35;;
44558;SDS011;30270;40.238;18.256;2022-11-20T00:46:26;28.63;;;8.85;;
44558;SDS011;30270;40.238;18.256;2022-11-20T00:48:54;33.33;;;8.85;;
44558;SDS011;30270;40.238;18.256;2022-11-20T00:51:22;37.30;;;9.45;;
44558;SDS011;30270;40.238;18.256;2022-11-20T00:53:51;25.30;;;9.50;;
44558;SDS011;30270;40.238;18.256;2022-11-20T00:56:22;30.45;;;8.88;;
44558;SDS011;30270;40.238;18.256;2022-11-20T00:58:49;23.20;;;7.57;;
44558;SDS011;30270;40.238;18.256;2022-11-20T01:03:47;31.40;;;9.18;;
44558;SDS011;30270;40.238;18.256;2022-11-20T01:06:17;28.85;;;7.80;;
44558;SDS011;30270;40.238;18.256;2022-11-20T01:08:46;21.63;;;6.82;;
44558;SDS011;30270;40.238;18.256;2022-11-20T01:11:19;29.63;;;9.50;;
44558;SDS011;30270;40.238;18.256;2022-11-20T01:13:48;20.92;;;7.47;;
44558;SDS011;30270;40.238;18.256;2022-11-20T01:18:47;10.93;;;3.45;;
44558;SDS011;30270;40.238;18.256;2022-11-20T01:21:18;15.20;;;5.25;;
44558;SDS011;30270;40.238;18.256;2022-11-20T01:23:50;22.90;;;6.53;;
44558;SDS011;30270;40.238;18.256;2022-11-20T01:26:19;16.08;;;4.70;;
44558;SDS011;30270;40.238;18.256;2022-11-20T01:28:51;13.57;;;4.78;;
44558;SDS011;30270;40.238;18.256;2022-11-20T01:31:23;10.40;;;4.05;;
44558;SDS011;30270;40.238;18.256;2022-11-20T01:33:54;10.38;;;2.08;;
44558;SDS011;30270;40.238;18.256;2022-11-20T01:36:24;7.97;;;2.28;;
44558;SDS011;30270;40.238;18.256;2022-11-20T01:38:54;13.25;;;3.25;;
44558;SDS011;30270;40.238;18.256;2022-11-20T01:41:24;10.10;;;2.88;;
44558;SDS011;30270;40.238;18.256;2022-11-20T01:44:12;7.93;;;2.70;;
44558;SDS011;30270;40.238;18.256;2022-11-20T01:46:52;9.75;;;3.42;;
44558;SDS011;30270;40.238;18.256;2022-11-20T01:49:31;9.90;;;2.90;;
44558;SDS011;30270;40.238;18.256;2022-11-20T01:52:17;9.13;;;3.70;;
44558;SDS011;30270;40.238;18.256;2022-11-20T01:55:04;13.82;;;4.65;;
44558;SDS011;30270;40.238;18.256;2022-11-20T01:57:35;10.35;;;3.92;;
44558;SDS011;30270;40.238;18.256;2022-11-20T02:00:09;14.55;;;4.28;;
44558;SDS011;30270;40.238;18.256;2022-11-20T02:02:44;27.52;;;7.32;;
44558;SDS011;30270;40.238;18.256;2022-11-20T02:07:49;26.45;;;9.80;;
44558;SDS011;30270;40.238;18.256;2022-11-20T02:10:17;27.58;;;7.38;;
44558;SDS011;30270;40.238;18.256;2022-11-20T02:12:45;21.08;;;7.50;;
44558;SDS011;30270;40.238;18.256;2022-11-20T02:15:32;25.42;;;7.88;;
44558;SDS011;30270;40.238;18.256;2022-11-20T02:18:00;35.22;;;9.63;;
44558;SDS011;30270;40.238;18.256;2022-11-20T02:20:28;37.67;;;7.78;;
44558;SDS011;30270;40.238;18.256;2022-11-20T02:25:23;24.05;;;7.82;;
44558;SDS011;30270;40.238;18.256;2022-11-20T02:27:52;23.63;;;8.65;;
44558;SDS011;30270;40.238;18.256;2022-11-20T02:30:20;29.05;;;9.02;;
44558;SDS011;30270;40.238;18.256;2022-11-20T02:32:48;25.48;;;9.43;;
44558;SDS011;30270;40.238;18.256;2022-11-20T02:37:47;17.52;;;8.00;;
44558;SDS011;30270;40.238;18.256;2022-11-20T02:40:17;24.63;;;7.25;;
44558;SDS011;30270;40.238;18.256;2022-11-20T02:42:44;30.70;;;9.52;;
44558;SDS011;30270;40.238;18.256;2022-11-20T02:45:12;26.45;;;8.85;;
44558;SDS011;30270;40.238;18.256;2022-11-20T02:47:39;21.80;;;7.70;;
44558;SDS011;30270;40.238;18.256;2022-11-20T02:50:07;34.67;;;10.50;;
44558;SDS011;30270;40.238;18.256;2022-11-20T02:52:34;23.63;;;9.23;;
44558;SDS011;30270;40.238;18.256;2022-11-20T02:55:02;22.25;;;7.88;;
44558;SDS011;30270;40.238;18.256;2022-11-20T02:57:30;26.25;;;8.68;;
44558;SDS011;30270;40.238;18.256;2022-11-20T02:59:57;16.35;;;6.53;;
44558;SDS011;30270;40.238;18.256;2022-11-20T03:02:25;15.13;;;6.38;;
44558;SDS011;30270;40.238;18.256;2022-11-20T03:04:56;23.58;;;6.10;;
44558;SDS011;30270;40.238;18.256;2022-11-20T03:07:23;20.73;;;7.15;;
44558;SDS011;30270;40.238;18.256;2022-11-20T03:15:05;10.88;;;5.10;;
44558;SDS011;30270;40.238;18.256;2022-11-20T03:17:33;7.00;;;3.17;;
44558;SDS011;30270;40.238;18.256;2022-11-20T03:20:03;12.45;;;3.88;;
44558;SDS011;30270;40.238;18.256;2022-11-20T03:22:32;15.07;;;5.22;;
44558;SDS011;30270;40.238;18.256;2022-11-20T03:25:00;10.50;;;3.05;;
44558;SDS011;30270;40.238;18.256;2022-11-20T03:32:47;2.97;;;1.58;;
44558;SDS011;30270;40.238;18.256;2022-11-20T03:35:23;11.65;;;3.08;;
44558;SDS011;30270;40.238;18.256;2022-11-20T03:37:51;11.55;;;3.60;;
44558;SDS011;30270;40.238;18.256;2022-11-20T03:40:18;6.75;;;3.15;;
44558;SDS011;30270;40.238;18.256;2022-11-20T03:42:46;6.72;;;2.85;;
44558;SDS011;30270;40.238;18.256;2022-11-20T03:45:14;4.68;;;1.70;;
44558;SDS011;30270;40.238;18.256;2022-11-20T03:47:43;6.63;;;1.88;;
44558;SDS011;30270;40.238;18.256;2022-11-20T03:50:12;5.57;;;2.70;;
44558;SDS011;30270;40.238;18.256;2022-11-20T03:52:40;6.35;;;2.00;;
44558;SDS011;30270;40.238;18.256;2022-11-20T03:55:09;3.78;;;1.90;;
44558;SDS011;30270;40.238;18.256;2022-11-20T03:57:37;5.38;;;2.40;;
44558;SDS011;30270;40.238;18.256;2022-11-20T04:00:04;9.98;;;2.65;;
44558;SDS011;30270;40.238;18.256;2022-11-20T04:02:32;6.93;;;2.38;;
44558;SDS011;30270;40.238;18.256;2022-11-20T04:05:00;9.52;;;2.83;;
44558;SDS011;30270;40.238;18.256;2022-11-20T04:07:27;4.32;;;1.92;;
44558;SDS011;30270;40.238;18.256;2022-11-20T04:09:55;6.97;;;2.17;;
44558;SDS011;30270;40.238;18.256;2022-11-20T04:12:22;9.23;;;2.92;;
44558;SDS011;30270;40.238;18.256;2022-11-20T04:14:50;10.77;;;3.63;;
44558;SDS011;30270;40.238;18.256;2022-11-20T04:17:17;29.48;;;3.95;;
44558;SDS011;30270;40.238;18.256;2022-11-20T04:19:44;11.07;;;4.55;;
44558;SDS011;30270;40.238;18.256;2022-11-20T04:22:12;18.60;;;5.43;;
44558;SDS011;30270;40.238;18.256;2022-11-20T04:24:40;15.73;;;6.47;;
44558;SDS011;30270;40.238;18.256;2022-11-20T04:27:07;14.38;;;5.00;;
44558;SDS011;30270;40.238;18.256;2022-11-20T04:29:35;15.07;;;5.80;;
44558;SDS011;30270;40.238;18.256;2022-11-20T04:32:02;21.05;;;6.93;;
44558;SDS011;30270;40.238;18.256;2022-11-20T04:34:30;25.45;;;6.10;;
44558;SDS011;30270;40.238;18.256;2022-11-20T04:36:57;24.83;;;6.38;;
44558;SDS011;30270;40.238;18.256;2022-11-20T04:39:25;36.63;;;10.00;;
44558;SDS011;30270;40.238;18.256;2022-11-20T04:41:52;28.10;;;9.50;;
44558;SDS011;30270;40.238;18.256;2022-11-20T04:44:40;27.80;;;8.20;;
44558;SDS011;30270;40.238;18.256;2022-11-20T04:47:07;35.03;;;9.75;;
44558;SDS011;30270;40.238;18.256;2022-11-20T04:49:34;23.95;;;9.70;;
44558;SDS011;30270;40.238;18.256;2022-11-20T04:52:02;28.67;;;9.30;;
44558;SDS011;30270;40.238;18.256;2022-11-20T04:54:30;24.50;;;9.38;;
44558;SDS011;30270;40.238;18.256;2022-11-20T04:56:57;27.48;;;8.35;;
44558;SDS011;30270;40.238;18.256;2022-11-20T04:59:24;21.88;;;8.40;;
44558;SDS011;30270;40.238;18.256;2022-11-20T05:01:52;24.13;;;8.35;;
44558;SDS011;30270;40.238;18.256;2022-11-20T05:04:19;21.42;;;7.82;;
44558;SDS011;30270;40.238;18.256;2022-11-20T05:06:47;35.88;;;8.93;;
44558;SDS011;30270;40.238;18.256;2022-11-20T05:09:16;18.23;;;8.52;;
44558;SDS011;30270;40.238;18.256;2022-11-20T05:11:43;27.10;;;8.30;;
44558;SDS011;30270;40.238;18.256;2022-11-20T05:14:12;12.48;;;6.03;;
44558;SDS011;30270;40.238;18.256;2022-11-20T05:16:40;16.42;;;7.10;;
44558;SDS011;30270;40.238;18.256;2022-11-20T05:19:08;16.50;;;6.28;;
44558;SDS011;30270;40.238;18.256;2022-11-20T05:21:36;21.58;;;8.57;;
44558;SDS011;30270;40.238;18.256;2022-11-20T05:24:03;14.20;;;6.18;;
44558;SDS011;30270;40.238;18.256;2022-11-20T05:26:31;21.95;;;7.05;;
44558;SDS011;30270;40.238;18.256;2022-11-20T05:28:58;16.70;;;6.28;;
44558;SDS011;30270;40.238;18.256;2022-11-20T05:31:26;21.10;;;7.38;;
44558;SDS011;30270;40.238;18.256;2022-11-20T05:33:54;20.73;;;6.95;;
44558;SDS011;30270;40.238;18.256;2022-11-20T05:36:23;38.85;;;7.82;;
44558;SDS011;30270;40.238;18.256;2022-11-20T05:38:50;19.05;;;8.43;;
44558;SDS011;30270;40.238;18.256;2022-11-20T05:41:20;27.45;;;6.05;;
44558;SDS011;30270;40.238;18.256;2022-11-20T05:43:48;14.73;;;5.95;;
44558;SDS011;30270;40.238;18.256;2022-11-20T05:46:17;18.67;;;5.88;;
44558;SDS011;30270;40.238;18.256;2022-11-20T05:48:49;18.67;;;6.28;;
44558;SDS011;30270;40.238;18.256;2022-11-20T05:51:17;16.13;;;5.13;;
44558;SDS011;30270;40.238;18.256;2022-11-20T05:53:45;16.48;;;4.93;;
44558;SDS011;30270;40.238;18.256;2022-11-20T05:56:15;11.57;;;3.90;;
44558;SDS011;30270;40.238;18.256;2022-11-20T05:58:44;13.82;;;5.05;;
44558;SDS011;30270;40.238;18.256;2022-11-20T06:01:17;21.13;;;4.60;;
44558;SDS011;30270;40.238;18.256;2022-11-20T06:03:47;11.80;;;4.28;;
44558;SDS011;30270;40.238;18.256;2022-11-20T06:06:17;14.73;;;5.82;;
44558;SDS011;30270;40.238;18.256;2022-11-20T06:08:46;8.25;;;3.70;;
44558;SDS011;30270;40.238;18.256;2022-11-20T06:11:14;13.15;;;5.60;;
44558;SDS011;30270;40.238;18.256;2022-11-20T06:13:43;10.18;;;3.85;;
44558;SDS011;30270;40.238;18.256;2022-11-20T06:16:11;19.98;;;5.65;;
44558;SDS011;30270;40.238;18.256;2022-11-20T06:18:41;9.13;;;5.07;;
44558;SDS011;30270;40.238;18.256;2022-11-20T06:21:11;9.25;;;4.40;;
44558;SDS011;30270;40.238;18.256;2022-11-20T06:23:40;11.18;;;4.68;;
44558;SDS011;30270;40.238;18.256;2022-11-20T06:26:12;10.35;;;3.97;;
44558;SDS011;30270;40.238;18.256;2022-11-20T06:28:44;9.93;;;3.80;;
44558;SDS011;30270;40.238;18.256;2022-11-20T06:31:13;16.58;;;3.95;;
44558;SDS011;30270;40.238;18.256;2022-11-20T06:33:42;8.32;;;4.93;;
44558;SDS011;30270;40.238;18.256;2022-11-20T06:36:10;11.60;;;4.35;;
44558;SDS011;30270;40.238;18.256;2022-11-20T06:38:39;13.93;;;4.35;;
44558;SDS011;30270;40.238;18.256;2022-11-20T06:41:10;9.20;;;5.53;;
44558;SDS011;30270;40.238;18.256;2022-11-20T06:43:40;8.45;;;5.32;;
44558;SDS011;30270;40.238;18.256;2022-11-20T06:46:09;13.45;;;5.60;;
44558;SDS011;30270;40.238;18.256;2022-11-20T06:48:37;9.85;;;4.95;;
44558;SDS011;30270;40.238;18.256;2022-11-20T06:51:06;11.02;;;4.70;;
44558;SDS011;30270;40.238;18.256;2022-11-20T06:53:34;8.77;;;5.07;;
44558;SDS011;30270;40.238;18.256;2022-11-20T06:56:02;16.40;;;5.95;;
44558;SDS011;30270;40.238;18.256;2022-11-20T06:58:31;10.40;;;4.35;;
44558;SDS011;30270;40.238;18.256;2022-11-20T07:01:01;13.90;;;3.58;;
44558;SDS011;30270;40.238;18.256;2022-11-20T07:03:31;9.85;;;3.65;;
44558;SDS011;30270;40.238;18.256;2022-11-20T07:06:00;14.35;;;6.38;;
44558;SDS011;30270;40.238;18.256;2022-11-20T07:08:28;14.25;;;5.22;;
44558;SDS011;30270;40.238;18.256;2022-11-20T07:10:57;11.85;;;5.18;;
44558;SDS011;30270;40.238;18.256;2022-11-20T07:13:26;11.65;;;4.88;;
44558;SDS011;30270;40.238;18.256;2022-11-20T07:15:55;12.35;;;5.18;;
44558;SDS011;30270;40.238;18.256;2022-11-20T07:18:27;16.10;;;5.20;;
44558;SDS011;30270;40.238;18.256;2022-11-20T07:20:55;12.07;;;5.70;;
44558;SDS011;30270;40.238;18.256;2022-11-20T07:23:22;8.77;;;3.50;;
44558;SDS011;30270;40.238;18.256;2022-11-20T07:25:50;17.75;;;7.32;;
44558;SDS011;30270;40.238;18.256;2022-11-20T07:28:17;23.13;;;10.98;;
44558;SDS011;30270;40.238;18.256;2022-11-20T07:30:52;13.45;;;7.60;;
44558;SDS011;30270;40.238;18.256;2022-11-20T07:33:20;14.30;;;5.85;;
44558;SDS011;30270;40.238;18.256;2022-11-20T07:35:47;8.88;;;5.63;;
44558;SDS011;30270;40.238;18.256;2022-11-20T07:38:15;8.82;;;4.90;;
44558;SDS011;30270;40.238;18.256;2022-11-20T07:40:42;13.35;;;5.00;;
44558;SDS011;30270;40.238;18.256;2022-11-20T07:43:10;9.52;;;4.55;;
44558;SDS011;30270;40.238;18.256;2022-11-20T07:45:37;7.05;;;3.22;;
44558;SDS011;30270;40.238;18.256;2022-11-20T07:48:05;10.98;;;4.07;;
44558;SDS011;30270;40.238;18.256;2022-11-20T07:50:32;10.60;;;4.10;;
44558;SDS011;30270;40.238;18.256;2022-11-20T07:53:01;11.73;;;4.32;;
44558;SDS011;30270;40.238;18.256;2022-11-20T07:55:30;13.70;;;4.70;;
44558;SDS011;30270;40.238;18.256;2022-11-20T07:57:58;10.63;;;5.47;;
44558;SDS011;30270;40.238;18.256;2022-11-20T08:00:26;15.75;;;6.65;;
44558;SDS011;30270;40.238;18.256;2022-11-20T08:02:54;15.48;;;6.50;;
44558;SDS011;30270;40.238;18.256;2022-11-20T08:05:21;14.70;;;6.50;;
44558;SDS011;30270;40.238;18.256;2022-11-20T08:07:49;8.15;;;3.10;;
44558;SDS011;30270;40.238;18.256;2022-11-20T08:10:17;11.63;;;4.68;;
44558;SDS011;30270;40.238;18.256;2022-11-20T08:12:45;8.50;;;4.05;;
44558;SDS011;30270;40.238;18.256;2022-11-20T08:15:32;9.25;;;4.32;;
44558;SDS011;30270;40.238;18.256;2022-11-20T08:18:04;7.65;;;3.50;;
44558;SDS011;30270;40.238;18.256;2022-11-20T08:21:01;10.93;;;5.53;;
44558;SDS011;30270;40.238;18.256;2022-11-20T08:23:30;14.10;;;4.95;;
44558;SDS011;30270;40.238;18.256;2022-11-20T08:25:58;7.85;;;4.90;;
44558;SDS011;30270;40.238;18.256;2022-11-20T08:28:25;14.00;;;5.60;;
44558;SDS011;30270;40.238;18.256;2022-11-20T08:30:57;14.07;;;6.15;;
44558;SDS011;30270;40.238;18.256;2022-11-20T08:33:26;11.32;;;4.82;;
44558;SDS011;30270;40.238;18.256;2022-11-20T08:35:57;7.72;;;4.03;;
44558;SDS011;30270;40.238;18.256;2022-11-20T08:38:29;13.50;;;3.95;;
44558;SDS011;30270;40.238;18.256;2022-11-20T08:41:02;7.70;;;4.30;;
44558;SDS011;30270;40.238;18.256;2022-11-20T08:43:50;16.13;;;3.38;;
44558;SDS011;30270;40.238;18.256;2022-11-20T08:46:19;10.68;;;4.10;;
44558;SDS011;30270;40.238;18.256;2022-11-20T08:48:47;10.07;;;2.17;;
44558;SDS011;30270;40.238;18.256;2022-11-20T08:51:15;8.93;;;3.42;;
44558;SDS011;30270;40.238;18.256;2022-11-20T08:53:43;8.73;;;4.50;;
44558;SDS011;30270;40.238;18.256;2022-11-20T08:56:11;7.03;;;3.38;;
44558;SDS011;30270;40.238;18.256;2022-11-20T08:58:39;7.93;;;3.25;;
44558;SDS011;30270;40.238;18.256;2022-11-20T09:01:21;5.95;;;3.10;;
44558;SDS011;30270;40.238;18.256;2022-11-20T09:03:50;8.30;;;3.03;;
44558;SDS011;30270;40.238;18.256;2022-11-20T09:06:17;6.25;;;2.50;;
44558;SDS011;30270;40.238;18.256;2022-11-20T09:08:45;8.45;;;3.08;;
44558;SDS011;30270;40.238;18.256;2022-11-20T09:11:13;21.73;;;3.53;;
44558;SDS011;30270;40.238;18.256;2022-11-20T09:13:40;7.95;;;2.97;;
44558;SDS011;30270;40.238;18.256;2022-11-20T09:16:08;7.90;;;3.53;;
44558;SDS011;30270;40.238;18.256;2022-11-20T09:18:36;8.27;;;4.18;;
44558;SDS011;30270;40.238;18.256;2022-11-20T09:21:05;5.53;;;1.90;;
44558;SDS011;30270;40.238;18.256;2022-11-20T09:23:37;6.53;;;2.28;;
44558;SDS011;30270;40.238;18.256;2022-11-20T09:26:07;6.78;;;2.85;;
44558;SDS011;30270;40.238;18.256;2022-11-20T09:28:39;5.60;;;2.10;;
44558;SDS011;30270;40.238;18.256;2022-11-20T09:31:07;10.50;;;4.00;;
44558;SDS011;30270;40.238;18.256;2022-11-20T09:33:36;14.43;;;3.47;;
44558;SDS011;30270;40.238;18.256;2022-11-20T09:36:04;6.18;;;3.03;;
44558;SDS011;30270;40.238;18.256;2022-11-20T09:38:32;10.63;;;2.63;;
44558;SDS011;30270;40.238;18.256;2022-11-20T09:41:04;7.13;;;3.40;;
44558;SDS011;30270;40.238;18.256;2022-11-20T09:48:55;9.98;;;2.70;;
44558;SDS011;30270;40.238;18.256;2022-11-20T09:54:17;14.77;;;4.60;;
44558;SDS011;30270;40.238;18.256;2022-11-20T09:56:54;9.75;;;3.55;;
44558;SDS011;30270;40.238;18.256;2022-11-20T09:59:34;11.02;;;2.92;;
44558;SDS011;30270;40.238;18.256;2022-11-20T10:02:15;9.98;;;3.00;;
44558;SDS011;30270;40.238;18.256;2022-11-20T10:04:51;11.52;;;4.88;;
44558;SDS011;30270;40.238;18.256;2022-11-20T10:07:46;6.35;;;2.60;;
44558;SDS011;30270;40.238;18.256;2022-11-20T10:10:15;8.77;;;2.75;;
44558;SDS011;30270;40.238;18.256;2022-11-20T10:18:21;9.82;;;2.90;;
44558;SDS011;30270;40.238;18.256;2022-11-20T10:29:19;5.68;;;2.58;;
44558;SDS011;30270;40.238;18.256;2022-11-20T10:31:56;5.50;;;2.63;;
44558;SDS011;30270;40.238;18.256;2022-11-20T10:34:35;7.70;;;3.10;;
44558;SDS011;30270;40.238;18.256;2022-11-20T10:37:25;8.38;;;3.70;;
44558;SDS011;30270;40.238;18.256;2022-11-20T10:42:31;8.50;;;3.58;;
44558;SDS011;30270;40.238;18.256;2022-11-20T10:50:54;8.85;;;3.30;;
44558;SDS011;30270;40.238;18.256;2022-11-20T10:56:09;7.90;;;3.15;;
44558;SDS011;30270;40.238;18.256;2022-11-20T11:01:31;7.82;;;2.33;;
44558;SDS011;30270;40.238;18.256;2022-11-20T11:04:30;6.38;;;2.58;;
44558;SDS011;30270;40.238;18.256;2022-11-20T11:10:18;7.75;;;2.50;;
44558;SDS011;30270;40.238;18.256;2022-11-20T11:13:30;6.25;;;2.72;;
44558;SDS011;30270;40.238;18.256;2022-11-20T11:15:57;10.27;;;3.92;;
44558;SDS011;30270;40.238;18.256;2022-11-20T11:18:26;5.10;;;2.42;;
44558;SDS011;30270;40.238;18.256;2022-11-20T11:20:57;20.30;;;3.72;;
44558;SDS011;30270;40.238;18.256;2022-11-20T11:25:58;6.05;;;1.90;;
44558;SDS011;30270;40.238;18.256;2022-11-20T11:28:28;8.82;;;2.40;;
44558;SDS011;30270;40.238;18.256;2022-11-20T11:30:55;10.45;;;2.33;;
44558;SDS011;30270;40.238;18.256;2022-11-20T11:33:24;8.95;;;3.28;;
44558;SDS011;30270;40.238;18.256;2022-11-20T11:36:00;4.60;;;2.40;;
44558;SDS011;30270;40.238;18.256;2022-11-20T11:38:42;8.75;;;3.80;;
44558;SDS011;30270;40.238;18.256;2022-11-20T11:41:22;4.53;;;3.00;;
44558;SDS011;30270;40.238;18.256;2022-11-20T11:44:18;5.77;;;2.73;;
44558;SDS011;30270;40.238;18.256;2022-11-20T11:47:11;8.65;;;2.92;;
44558;SDS011;30270;40.238;18.256;2022-11-20T11:55:09;2.75;;;1.63;;
44558;SDS011;30270;40.238;18.256;2022-11-20T11:57:52;8.35;;;2.70;;
44558;SDS011;30270;40.238;18.256;2022-11-20T12:00:24;4.63;;;1.63;;
44558;SDS011;30270;40.238;18.256;2022-11-20T12:05:38;6.32;;;1.60;;
44558;SDS011;30270;40.238;18.256;2022-11-20T12:08:15;7.32;;;2.55;;
44558;SDS011;30270;40.238;18.256;2022-11-20T12:11:02;5.10;;;1.95;;
44558;SDS011;30270;40.238;18.256;2022-11-20T12:16:10;6.07;;;2.95;;
44558;SDS011;30270;40.238;18.256;2022-11-20T12:18:41;4.47;;;2.50;;
44558;SDS011;30270;40.238;18.256;2022-11-20T12:21:12;9.73;;;2.47;;
44558;SDS011;30270;40.238;18.256;2022-11-20T12:26:41;8.25;;;3.42;;
44558;SDS011;30270;40.238;18.256;2022-11-20T12:31:52;10.93;;;4.40;;
44558;SDS011;30270;40.238;18.256;2022-11-20T12:34:52;9.38;;;4.20;;
44558;SDS011;30270;40.238;18.256;2022-11-20T12:37:56;13.52;;;5.63;;
44558;SDS011;30270;40.238;18.256;2022-11-20T12:46:30;12.25;;;4.55;;
44558;SDS011;30270;40.238;18.256;2022-11-20T13:07:46;16.10;;;4.32;;
44558;SDS011;30270;40.238;18.256;2022-11-20T13:12:57;10.02;;;3.75;;
44558;SDS011;30270;40.238;18.256;2022-11-20T13:15:50;12.43;;;4.97;;
44558;SDS011;30270;40.238;18.256;2022-11-20T13:18:40;11.52;;;4.63;;
44558;SDS011;30270;40.238;18.256;2022-11-20T13:21:16;16.13;;;5.20;;
44558;SDS011;30270;40.238;18.256;2022-11-20T13:23:47;12.57;;;5.78;;
44558;SDS011;30270;40.238;18.256;2022-11-20T13:26:19;11.45;;;4.55;;
44558;SDS011;30270;40.238;18.256;2022-11-20T13:31:39;17.58;;;7.13;;
44558;SDS011;30270;40.238;18.256;2022-11-20T13:34:12;16.80;;;7.75;;
44558;SDS011;30270;40.238;18.256;2022-11-20T13:37:00;20.05;;;9.43;;
44558;SDS011;30270;40.238;18.256;2022-11-20T13:39:30;23.45;;;11.93;;
44558;SDS011;30270;40.238;18.256;2022-11-20T13:42:20;20.33;;;11.38;;
44558;SDS011;30270;40.238;18.256;2022-11-20T13:44:54;22.65;;;9.88;;
44558;SDS011;30270;40.238;18.256;2022-11-20T13:47:28;25.13;;;11.07;;
44558;SDS011;30270;40.238;18.256;2022-11-20T13:49:57;11.77;;;6.22;;
44558;SDS011;30270;40.238;18.256;2022-11-20T13:55:29;13.13;;;7.85;;
44558;SDS011;30270;40.238;18.256;2022-11-20T14:03:38;10.25;;;5.45;;
44558;SDS011;30270;40.238;18.256;2022-11-20T14:06:30;11.20;;;6.20;;
44558;SDS011;30270;40.238;18.256;2022-11-20T14:09:00;17.88;;;7.60;;
44558;SDS011;30270;40.238;18.256;2022-11-20T14:11:29;13.32;;;6.63;;
44558;SDS011;30270;40.238;18.256;2022-11-20T14:13:59;14.65;;;7.35;;
44558;SDS011;30270;40.238;18.256;2022-11-20T14:16:32;12.40;;;5.35;;
44558;SDS011;30270;40.238;18.256;2022-11-20T14:19:19;8.65;;;2.92;;
44558;SDS011;30270;40.238;18.256;2022-11-20T14:22:27;6.93;;;3.17;;
44558;SDS011;30270;40.238;18.256;2022-11-20T14:24:49;11.52;;;3.60;;
44558;SDS011;30270;40.238;18.256;2022-11-20T14:27:54;5.68;;;3.38;;
44558;SDS011;30270;40.238;18.256;2022-11-20T14:30:43;7.57;;;2.80;;
44558;SDS011;30270;40.238;18.256;2022-11-20T14:33:14;6.55;;;2.47;;
44558;SDS011;30270;40.238;18.256;2022-11-20T14:35:46;10.10;;;3.60;;
44558;SDS011;30270;40.238;18.256;2022-11-20T14:38:16;8.25;;;3.83;;
44558;SDS011;30270;40.238;18.256;2022-11-20T14:40:47;14.43;;;5.40;;
44558;SDS011;30270;40.238;18.256;2022-11-20T14:43:22;12.27;;;5.20;;
44558;SDS011;30270;40.238;18.256;2022-11-20T14:46:04;11.00;;;5.47;;
44558;SDS011;30270;40.238;18.256;2022-11-20T14:48:42;13.25;;;4.63;;
44558;SDS011;30270;40.238;18.256;2022-11-20T14:54:17;12.82;;;5.32;;
44558;SDS011;30270;40.238;18.256;2022-11-20T14:56:59;7.93;;;4.40;;
44558;SDS011;30270;40.238;18.256;2022-11-20T14:59:29;8.02;;;2.72;;
44558;SDS011;30270;40.238;18.256;2022-11-20T15:02:01;7.63;;;3.80;;
44558;SDS011;30270;40.238;18.256;2022-11-20T15:04:29;8.27;;;4.13;;
44558;SDS011;30270;40.238;18.256;2022-11-20T15:06:57;5.75;;;2.75;;
44558;SDS011;30270;40.238;18.256;2022-11-20T15:09:26;7.60;;;4.32;;
44558;SDS011;30270;40.238;18.256;2022-11-20T15:11:58;6.18;;;3.55;;
44558;SDS011;30270;40.238;18.256;2022-11-20T15:14:28;7.60;;;2.55;;
44558;SDS011;30270;40.238;18.256;2022-11-20T15:16:59;7.75;;;3.50;;
44558;SDS011;30270;40.238;18.256;2022-11-20T15:19:27;12.43;;;3.28;;
44558;SDS011;30270;40.238;18.256;2022-11-20T15:21:54;12.32;;;3.83;;
44558;SDS011;30270;40.238;18.256;2022-11-20T15:24:22;12.00;;;4.47;;
44558;SDS011;30270;40.238;18.256;2022-11-20T15:26:49;9.70;;;4.72;;
44558;SDS011;30270;40.238;18.256;2022-11-20T15:29:17;18.45;;;7.00;;
44558;SDS011;30270;40.238;18.256;2022-11-20T15:31:47;13.40;;;5.63;;
44558;SDS011;30270;40.238;18.256;2022-11-20T15:34:15;11.23;;;6.63;;
44558;SDS011;30270;40.238;18.256;2022-11-20T15:36:43;11.52;;;6.38;;
44558;SDS011;30270;40.238;18.256;2022-11-20T15:39:10;13.45;;;4.78;;
44558;SDS011;30270;40.238;18.256;2022-11-20T15:41:39;15.85;;;4.68;;
44558;SDS011;30270;40.238;18.256;2022-11-20T15:44:07;6.90;;;3.67;;
44558;SDS011;30270;40.238;18.256;2022-11-20T15:46:36;5.78;;;3.10;;
44558;SDS011;30270;40.238;18.256;2022-11-20T15:49:12;8.40;;;2.90;;
44558;SDS011;30270;40.238;18.256;2022-11-20T15:51:41;6.78;;;2.28;;
44558;SDS011;30270;40.238;18.256;2022-11-20T15:54:20;7.22;;;3.22;;
44558;SDS011;30270;40.238;18.256;2022-11-20T15:56:49;7.10;;;2.63;;
44558;SDS011;30270;40.238;18.256;2022-11-20T15:59:20;14.82;;;4.13;;
44558;SDS011;30270;40.238;18.256;2022-11-20T16:01:48;9.82;;;3.53;;
44558;SDS011;30270;40.238;18.256;2022-11-20T16:04:16;6.90;;;2.97;;
44558;SDS011;30270;40.238;18.256;2022-11-20T16:06:45;5.72;;;2.80;;
44558;SDS011;30270;40.238;18.256;2022-11-20T16:09:12;9.82;;;3.40;;
44558;SDS011;30270;40.238;18.256;2022-11-20T16:11:41;7.85;;;4.05;;
44558;SDS011;30270;40.238;18.256;2022-11-20T16:14:10;15.02;;;5.47;;
44558;SDS011;30270;40.238;18.256;2022-11-20T16:16:57;11.80;;;3.95;;
44558;SDS011;30270;40.238;18.256;2022-11-20T16:19:25;6.75;;;3.33;;
44558;SDS011;30270;40.238;18.256;2022-11-20T16:21:53;10.90;;;4.63;;
44558;SDS011;30270;40.238;18.256;2022-11-20T16:24:22;7.18;;;3.97;;
44558;SDS011;30270;40.238;18.256;2022-11-20T16:26:52;15.27;;;6.47;;
44558;SDS011;30270;40.238;18.256;2022-11-20T16:29:22;18.48;;;7.28;;
44558;SDS011;30270;40.238;18.256;2022-11-20T16:31:50;12.65;;;6.93;;
44558;SDS011;30270;40.238;18.256;2022-11-20T16:34:17;12.48;;;6.82;;
44558;SDS011;30270;40.238;18.256;2022-11-20T16:36:45;11.13;;;5.00;;
44558;SDS011;30270;40.238;18.256;2022-11-20T16:39:13;13.55;;;6.07;;
44558;SDS011;30270;40.238;18.256;2022-11-20T16:41:44;11.25;;;4.60;;
44558;SDS011;30270;40.238;18.256;2022-11-20T16:44:12;14.40;;;5.35;;
44558;SDS011;30270;40.238;18.256;2022-11-20T16:46:41;14.80;;;5.20;;
44558;SDS011;30270;40.238;18.256;2022-11-20T16:49:12;11.98;;;5.13;;
44558;SDS011;30270;40.238;18.256;2022-11-20T16:51:40;14.35;;;5.88;;
44558;SDS011;30270;40.238;18.256;2022-11-20T16:54:08;16.05;;;5.65;;